Time;durP1;ratioP1;P1;durP2;ratioP2;P2;SDS_P1;SDS_P2;PMS_P1;PMS_P2;Temp;Humidity;BMP_temperature;BMP_pressure;BME280_temperature;BME280_humidity;BME280_pressure;Samples;Min_cycle;Max_cycle;Signal;HPM_P1;HPM_P2
2022/02/25 00:00:29;;;;;;;;;;;2.50;99.90;;;;;;4874341;29;19928;-84
2022/02/25 00:02:58;;;;;;;;;;;5.20;99.90;;;;;;4876574;29;19943;-84
2022/02/25 00:05:29;;;;;;;;;;;4.20;99.90;;;;;;4892883;29;19932;-83
2022/02/25 00:08:02;;;;;;;;;;;4.20;99.90;;;;;;4874255;29;19939;-84
2022/02/25 00:10:30;;;;;;;;;;;4.20;99.90;;;;;;4894431;29;19932;-84
2022/02/25 00:12:58;;;;;;;;;;;3.30;99.90;;;;;;4895376;29;19938;-83
2022/02/25 00:15:26;;;;;;;;;;;4.10;99.90;;;;;;4878113;29;19947;-83
2022/02/25 00:17:56;;;;;;;;;;;4.10;99.90;;;;;;4874740;29;19966;-88
2022/02/25 00:20:24;;;;;;;;;;;4.10;99.90;;;;;;4870465;29;19938;-83
2022/02/25 00:22:55;;;;;;;;;;;4.30;99.90;;;;;;4889768;29;19932;-84
2022/02/25 00:25:23;;;;;;;;;;;4.10;99.90;;;;;;4875700;29;19938;-83
2022/02/25 00:27:53;;;;;;;;;;;4.20;99.90;;;;;;4869920;29;19931;-82
2022/02/25 00:30:23;;;;;;;;;;;4.00;99.90;;;;;;4875813;29;19932;-83
2022/02/25 00:32:53;;;;;;;;;;;4.00;99.90;;;;;;4859210;29;19944;-82
2022/02/25 00:35:24;;;;;;;;;;;4.10;99.90;;;;;;4874763;29;19940;-81
2022/02/25 00:37:52;;;;;;;;;;;4.10;99.90;;;;;;4875362;29;20386;-82
2022/02/25 00:40:21;;;;;;;;;;;4.00;99.90;;;;;;4827580;29;19935;-82
2022/02/25 00:42:52;;;;;;;;;;;4.10;99.90;;;;;;4896882;29;19932;-83
2022/02/25 00:45:20;;;;;;;;;;;4.50;99.90;;;;;;4879245;29;19943;-82
2022/02/25 00:47:53;;;;;;;;;;;2.90;99.90;;;;;;4884940;29;20090;-83
2022/02/25 00:50:22;;;;;;;;;;;4.30;99.90;;;;;;4891847;29;19932;-83
2022/02/25 00:52:53;;;;;;;;;;;4.10;99.90;;;;;;4873284;29;19943;-83
2022/02/25 00:55:25;;;;;;;;;;;4.10;99.90;;;;;;4878189;29;19935;-83
2022/02/25 00:57:59;;;;;;;;;;;4.10;99.90;;;;;;4874980;29;19936;-82
2022/02/25 01:00:30;;;;;;;;;;;4.20;99.90;;;;;;4874339;29;19936;-83
2022/02/25 01:03:22;;;;;;;;;;;4.60;99.90;;;;;;4856563;29;19928;-83
2022/02/25 01:05:56;;;;;;;;;;;4.70;99.90;;;;;;4860318;29;19932;-82
2022/02/25 01:08:28;;;;;;;;;;;4.30;99.90;;;;;;4852315;29;19932;-84
2022/02/25 01:11:01;;;;;;;;;;;4.50;99.90;;;;;;4874110;29;19935;-84
2022/02/25 01:13:31;;;;;;;;;;;4.40;99.90;;;;;;4859010;29;19924;-83
2022/02/25 01:16:00;;;;;;;;;;;4.40;99.90;;;;;;4859113;29;19928;-85
2022/02/25 01:18:31;;;;;;;;;;;4.40;99.90;;;;;;4888354;29;19923;-83
2022/02/25 01:21:00;;;;;;;;;;;4.80;99.90;;;;;;4882068;29;19941;-86
2022/02/25 01:23:28;;;;;;;;;;;4.30;99.90;;;;;;4879126;29;19939;-85
2022/02/25 01:26:00;;;;;;;;;;;3.50;99.90;;;;;;4879229;29;19928;-85
2022/02/25 01:28:33;;;;;;;;;;;4.70;99.90;;;;;;4912784;29;19927;-84
2022/02/25 01:31:02;;;;;;;;;;;4.40;99.90;;;;;;4913190;29;19921;-84
2022/02/25 01:33:31;;;;;;;;;;;4.50;99.90;;;;;;4896417;29;19931;-83
2022/02/25 01:36:03;;;;;;;;;;;3.30;99.90;;;;;;4911956;29;19927;-83
2022/02/25 01:38:34;;;;;;;;;;;4.70;99.90;;;;;;4899366;29;19932;-81
2022/02/25 01:41:07;;;;;;;;;;;4.30;99.90;;;;;;4893146;29;19938;-83
2022/02/25 01:43:40;;;;;;;;;;;4.50;99.90;;;;;;4862251;29;19943;-83
2022/02/25 01:46:11;;;;;;;;;;;4.60;99.90;;;;;;4863709;29;19934;-82
2022/02/25 01:48:40;;;;;;;;;;;4.30;99.90;;;;;;4874578;29;19932;-84
2022/02/25 01:51:10;;;;;;;;;;;4.40;99.90;;;;;;4877736;29;20445;-82
2022/02/25 01:53:41;;;;;;;;;;;4.40;99.90;;;;;;4894154;29;19936;-81
2022/02/25 01:56:21;;;;;;;;;;;6.20;99.90;;;;;;4876637;29;19927;-83
2022/02/25 01:58:53;;;;;;;;;;;4.40;99.90;;;;;;4893546;29;19928;-84
2022/02/25 02:01:25;;;;;;;;;;;4.50;99.90;;;;;;4876074;29;19938;-82
2022/02/25 02:03:55;;;;;;;;;;;4.50;99.90;;;;;;4876396;29;19935;-83
2022/02/25 02:06:27;;;;;;;;;;;4.50;99.90;;;;;;4895611;29;19927;-83
2022/02/25 02:08:59;;;;;;;;;;;4.50;99.90;;;;;;4892074;29;19928;-84
2022/02/25 02:11:29;;;;;;;;;;;4.40;99.90;;;;;;4900459;29;19928;-83
2022/02/25 02:13:59;;;;;;;;;;;5.00;99.90;;;;;;4910693;29;20004;-85
2022/02/25 02:16:28;;;;;;;;;;;5.00;99.90;;;;;;4871218;29;19932;-82
2022/02/25 02:18:57;;;;;;;;;;;4.60;99.90;;;;;;4860115;29;19928;-82
2022/02/25 02:21:30;;;;;;;;;;;4.90;99.90;;;;;;4875720;29;19928;-84
2022/02/25 02:24:00;;;;;;;;;;;4.50;99.90;;;;;;4880083;29;19928;-83
2022/02/25 02:26:31;;;;;;;;;;;4.50;99.90;;;;;;4897726;29;19939;-84
2022/02/25 02:29:05;;;;;;;;;;;4.60;99.90;;;;;;4910337;29;19934;-84
2022/02/25 02:31:38;;;;;;;;;;;4.50;99.90;;;;;;4895202;29;19949;-84
2022/02/25 02:34:12;;;;;;;;;;;3.00;99.90;;;;;;4894683;29;19933;-84
2022/02/25 02:36:41;;;;;;;;;;;4.50;99.90;;;;;;4895229;29;19927;-83
2022/02/25 02:39:12;;;;;;;;;;;4.50;99.90;;;;;;4893163;29;19928;-83
2022/02/25 02:41:41;;;;;;;;;;;5.50;99.90;;;;;;4879419;29;19934;-83
2022/02/25 02:44:09;;;;;;;;;;;4.90;99.90;;;;;;4891645;29;19928;-82
2022/02/25 02:46:38;;;;;;;;;;;4.50;99.90;;;;;;4876107;29;19931;-83
2022/02/25 02:49:09;;;;;;;;;;;4.40;99.90;;;;;;4875531;29;19928;-82
2022/02/25 02:51:37;;;;;;;;;;;4.40;99.90;;;;;;4892344;29;19931;-83
2022/02/25 02:54:05;;;;;;;;;;;4.40;99.90;;;;;;4893407;29;19932;-83
2022/02/25 02:56:35;;;;;;;;;;;5.30;99.90;;;;;;4876759;29;19928;-82
2022/02/25 02:59:08;;;;;;;;;;;4.40;99.90;;;;;;4876834;29;20019;-83
2022/02/25 03:01:37;;;;;;;;;;;4.30;99.90;;;;;;4877072;29;19947;-83
2022/02/25 03:04:12;;;;;;;;;;;5.40;99.90;;;;;;4876928;29;19934;-84
2022/02/25 03:06:40;;;;;;;;;;;4.20;99.90;;;;;;4861826;29;20610;-83
2022/02/25 03:09:10;;;;;;;;;;;4.20;99.90;;;;;;4863265;29;19928;-84
2022/02/25 03:11:41;;;;;;;;;;;4.20;99.90;;;;;;4882579;29;19935;-83
2022/02/25 03:14:10;;;;;;;;;;;4.30;99.90;;;;;;4874872;29;19928;-83
2022/02/25 03:16:38;;;;;;;;;;;4.20;99.90;;;;;;4855638;29;19928;-85
2022/02/25 03:19:09;;;;;;;;;;;4.50;99.90;;;;;;4860612;29;19928;-84
2022/02/25 03:21:37;;;;;;;;;;;4.10;99.90;;;;;;4842786;29;19933;-84
2022/02/25 03:24:05;;;;;;;;;;;4.40;99.90;;;;;;4858085;29;19932;-84
2022/02/25 03:26:36;;;;;;;;;;;4.10;99.90;;;;;;4867383;29;20294;-83
2022/02/25 03:29:03;;;;;;;;;;;4.10;99.90;;;;;;4864444;29;19928;-85
2022/02/25 03:31:32;;;;;;;;;;;4.10;99.90;;;;;;4877146;29;19928;-84
2022/02/25 03:34:05;;;;;;;;;;;2.80;99.90;;;;;;4862827;29;20409;-84
2022/02/25 03:36:36;;;;;;;;;;;4.00;99.90;;;;;;4863629;29;19928;-83
2022/02/25 03:39:06;;;;;;;;;;;4.00;99.90;;;;;;4877200;29;19929;-84
2022/02/25 03:41:35;;;;;;;;;;;4.00;99.90;;;;;;4877191;29;19943;-83
2022/02/25 03:44:09;;;;;;;;;;;4.00;99.90;;;;;;4876674;29;19956;-83
2022/02/25 03:46:38;;;;;;;;;;;3.50;99.90;;;;;;4871191;29;19932;-83
2022/02/25 03:49:06;;;;;;;;;;;4.00;99.90;;;;;;4845217;29;19934;-82
2022/02/25 03:51:41;;;;;;;;;;;5.60;99.90;;;;;;4886400;29;19932;-84
2022/02/25 03:54:10;;;;;;;;;;;4.00;99.90;;;;;;4879682;29;19934;-84
2022/02/25 03:56:39;;;;;;;;;;;4.00;99.90;;;;;;4896104;29;19938;-83
2022/02/25 03:59:10;;;;;;;;;;;4.00;99.90;;;;;;4895461;29;19934;-83
2022/02/25 04:01:39;;;;;;;;;;;3.40;99.90;;;;;;4880131;29;19928;-83
2022/02/25 04:04:08;;;;;;;;;;;3.90;99.90;;;;;;4875917;29;19932;-82
2022/02/25 04:06:36;;;;;;;;;;;4.70;99.90;;;;;;4860859;29;19955;-85
2022/02/25 04:09:16;;;;;;;;;;;4.00;99.90;;;;;;4860804;29;19935;-84
2022/02/25 04:11:49;;;;;;;;;;;4.00;99.90;;;;;;4879493;29;19955;-84
2022/02/25 04:14:19;;;;;;;;;;;4.00;99.90;;;;;;4879878;29;19950;-85
2022/02/25 04:16:51;;;;;;;;;;;4.10;99.90;;;;;;4881068;29;19928;-84
2022/02/25 04:19:23;;;;;;;;;;;3.80;99.90;;;;;;4857894;29;19932;-85
2022/02/25 04:21:51;;;;;;;;;;;4.00;99.90;;;;;;4844163;29;19934;-85
2022/02/25 04:24:22;;;;;;;;;;;4.00;99.90;;;;;;4859620;29;19928;-85
2022/02/25 04:26:51;;;;;;;;;;;2.50;99.90;;;;;;4871723;29;19939;-86
2022/02/25 04:29:19;;;;;;;;;;;4.00;99.90;;;;;;4876462;29;19928;-83
2022/02/25 04:31:52;;;;;;;;;;;5.30;99.90;;;;;;4831389;29;19939;-84
2022/02/25 04:34:23;;;;;;;;;;;4.10;99.90;;;;;;4862065;29;19938;-85
2022/02/25 04:36:51;;;;;;;;;;;4.10;99.90;;;;;;4861172;29;19938;-83
2022/02/25 04:39:19;;;;;;;;;;;4.10;99.90;;;;;;4874840;29;19938;-84
2022/02/25 04:41:50;;;;;;;;;;;4.30;99.90;;;;;;4829455;29;19929;-84
2022/02/25 04:44:26;;;;;;;;;;;4.10;99.90;;;;;;4856404;29;19927;-85
2022/02/25 04:46:58;;;;;;;;;;;4.30;99.90;;;;;;4882084;29;19939;-85
2022/02/25 04:49:26;;;;;;;;;;;4.30;99.90;;;;;;4884622;29;19928;-84
2022/02/25 04:51:54;;;;;;;;;;;4.40;99.90;;;;;;4847863;29;19941;-83
2022/02/25 04:54:25;;;;;;;;;;;4.10;99.90;;;;;;4874464;29;19928;-83
2022/02/25 04:56:54;;;;;;;;;;;2.70;99.90;;;;;;4859260;29;19932;-84
2022/02/25 04:59:24;;;;;;;;;;;4.30;99.90;;;;;;4860083;29;19929;-82
2022/02/25 05:01:55;;;;;;;;;;;4.30;99.90;;;;;;4860655;29;19936;-84
2022/02/25 05:04:24;;;;;;;;;;;4.20;99.90;;;;;;4842718;29;19929;-84
2022/02/25 05:06:52;;;;;;;;;;;4.60;99.90;;;;;;4873322;29;19934;-83
2022/02/25 05:09:20;;;;;;;;;;;4.10;99.90;;;;;;4864666;29;19928;-84
2022/02/25 05:11:48;;;;;;;;;;;4.10;99.90;;;;;;4875609;29;19928;-84
2022/02/25 05:22:42;;;;;;;;;;;4.10;99.90;;;;;;4876273;29;19935;-85
2022/02/25 05:25:13;;;;;;;;;;;4.00;99.90;;;;;;4875691;29;19939;-84
2022/02/25 05:27:41;;;;;;;;;;;4.00;99.90;;;;;;4875750;29;19932;-82
2022/02/25 05:30:15;;;;;;;;;;;5.40;99.90;;;;;;4874835;29;19928;-86
2022/02/25 05:32:55;;;;;;;;;;;4.00;99.90;;;;;;4876658;29;19935;-88
2022/02/25 05:35:26;;;;;;;;;;;4.60;99.90;;;;;;4876733;29;19940;-86
2022/02/25 05:38:03;;;;;;;;;;;4.70;99.90;;;;;;4852476;29;19933;-83
2022/02/25 05:40:32;;;;;;;;;;;5.40;99.90;;;;;;4856799;29;19938;-86
2022/02/25 05:43:03;;;;;;;;;;;4.00;99.90;;;;;;4857986;29;19939;-84
2022/02/25 05:45:33;;;;;;;;;;;4.00;99.90;;;;;;4857375;29;19939;-84
2022/02/25 05:48:04;;;;;;;;;;;4.00;99.90;;;;;;4841494;29;19928;-85
2022/02/25 05:50:31;;;;;;;;;;;4.00;99.90;;;;;;4842265;29;19920;-85
2022/02/25 05:53:01;;;;;;;;;;;3.50;99.90;;;;;;4857733;29;19932;-84
2022/02/25 05:55:29;;;;;;;;;;;4.00;99.90;;;;;;4875054;29;19929;-85
2022/02/25 05:58:00;;;;;;;;;;;4.40;99.90;;;;;;4873010;29;19932;-85
2022/02/25 06:00:31;;;;;;;;;;;4.20;99.90;;;;;;4843697;29;20399;-83
2022/02/25 06:02:59;;;;;;;;;;;4.00;99.90;;;;;;4858006;29;19947;-84
2022/02/25 06:05:30;;;;;;;;;;;4.00;99.90;;;;;;4864415;29;19939;-84
2022/02/25 06:08:03;;;;;;;;;;;4.00;99.90;;;;;;4854251;29;19939;-84
2022/02/25 06:10:31;;;;;;;;;;;4.00;99.90;;;;;;4843571;29;19928;-85
2022/02/25 06:13:02;;;;;;;;;;;2.90;99.90;;;;;;4878614;29;19932;-84
2022/02/25 06:15:30;;;;;;;;;;;4.10;99.90;;;;;;4875899;29;19927;-84
2022/02/25 06:18:01;;;;;;;;;;;4.00;99.90;;;;;;4893232;29;19942;-84
2022/02/25 06:20:32;;;;;;;;;;;3.90;99.90;;;;;;4874471;29;19928;-84
2022/02/25 06:23:03;;;;;;;;;;;4.00;99.90;;;;;;4875862;29;19938;-84
2022/02/25 06:25:33;;;;;;;;;;;3.90;99.90;;;;;;4874631;29;19931;-84
2022/02/25 06:28:06;;;;;;;;;;;4.80;99.90;;;;;;4859442;29;19934;-84
2022/02/25 06:30:43;;;;;;;;;;;4.50;99.90;;;;;;4889436;29;19938;-84
2022/02/25 06:33:33;;;;;;;;;;;4.00;99.90;;;;;;4893295;29;19927;-84
2022/02/25 06:36:27;;;;;;;;;;;3.60;99.90;;;;;;4875037;29;19932;-84
2022/02/25 06:38:55;;;;;;;;;;;4.50;99.90;;;;;;4862519;29;19916;-84
2022/02/25 06:41:27;;;;;;;;;;;3.90;99.90;;;;;;4860934;29;19931;-86
2022/02/25 06:43:57;;;;;;;;;;;3.90;99.90;;;;;;4876946;29;20209;-82
2022/02/25 06:46:26;;;;;;;;;;;3.90;99.90;;;;;;4881798;29;19932;-85
2022/02/25 06:49:00;;;;;;;;;;;4.00;99.90;;;;;;4849094;29;19936;-84
2022/02/25 06:51:30;;;;;;;;;;;4.10;99.90;;;;;;4883285;29;19928;-86
2022/02/25 06:54:03;;;;;;;;;;;4.70;99.90;;;;;;4876261;29;19932;-82
2022/02/25 06:56:32;;;;;;;;;;;3.30;99.90;;;;;;4893555;29;19950;-82
2022/02/25 06:59:01;;;;;;;;;;;4.90;99.90;;;;;;4866025;29;20027;-84
2022/02/25 07:01:37;;;;;;;;;;;4.20;99.90;;;;;;4891318;29;19943;-86
2022/02/25 07:04:17;;;;;;;;;;;3.90;99.90;;;;;;4892521;29;20151;-83
2022/02/25 07:07:07;;;;;;;;;;;4.50;99.90;;;;;;4876209;29;19935;-84
2022/02/25 07:09:40;;;;;;;;;;;3.40;99.90;;;;;;4873372;29;19939;-83
2022/02/25 07:12:26;;;;;;;;;;;3.80;99.90;;;;;;4879626;29;20253;-82
2022/02/25 07:15:42;;;;;;;;;;;4.20;99.90;;;;;;4882413;29;19928;-84
2022/02/25 07:18:34;;;;;;;;;;;3.90;99.90;;;;;;4880797;29;20124;-82
2022/02/25 07:21:15;;;;;;;;;;;4.00;99.90;;;;;;4882014;29;20019;-84
2022/02/25 07:23:55;;;;;;;;;;;3.80;99.90;;;;;;4861175;29;19924;-85
2022/02/25 07:27:03;;;;;;;;;;;3.90;99.90;;;;;;4868166;29;19935;-84
2022/02/25 07:29:31;;;;;;;;;;;4.00;99.90;;;;;;4872589;29;19938;-84
2022/02/25 07:31:58;;;;;;;;;;;3.80;99.90;;;;;;4893052;29;19927;-84
2022/02/25 07:34:27;;;;;;;;;;;5.50;99.90;;;;;;4891467;29;19943;-84
2022/02/25 07:36:59;;;;;;;;;;;3.90;99.90;;;;;;4876365;29;19928;-83
2022/02/25 07:39:32;;;;;;;;;;;4.00;99.90;;;;;;4887649;29;19931;-84
2022/02/25 07:42:02;;;;;;;;;;;3.90;99.90;;;;;;4887833;29;19943;-84
2022/02/25 07:44:35;;;;;;;;;;;4.10;99.90;;;;;;4878516;29;19932;-84
2022/02/25 07:47:24;;;;;;;;;;;4.90;99.90;;;;;;4893320;29;19932;-89
2022/02/25 07:50:45;;;;;;;;;;;4.40;99.90;;;;;;4773081;30;19934;-88
2022/02/25 07:53:54;;;;;;;;;;;4.50;99.90;;;;;;4773420;30;19930;-86
2022/02/25 08:01:02;;;;;;;;;;;2.70;99.90;;;;;;4669769;30;19936;-87
2022/02/25 08:04:02;;;;;;;;;;;4.60;99.90;;;;;;4704769;30;20028;-86
2022/02/25 08:11:11;;;;;;;;;;;5.40;99.90;;;;;;4682153;30;19932;-87
2022/02/25 08:15:17;;;;;;;;;;;4.10;99.90;;;;;;4815554;29;19935;-86
2022/02/25 08:18:54;;;;;;;;;;;4.70;99.90;;;;;;4874579;29;20032;-86
2022/02/25 08:22:44;;;;;;;;;;;4.80;99.90;;;;;;4872530;29;19942;-90
2022/02/25 08:25:44;;;;;;;;;;;4.80;99.90;;;;;;4884096;29;19936;-89
2022/02/25 08:28:33;;;;;;;;;;;5.30;99.90;;;;;;4875441;29;19928;-86
2022/02/25 08:31:07;;;;;;;;;;;5.00;99.90;;;;;;4895318;29;19931;-85
2022/02/25 08:34:47;;;;;;;;;;;4.80;99.90;;;;;;4865396;29;19934;-86
2022/02/25 08:37:14;;;;;;;;;;;4.90;99.90;;;;;;4877724;29;19931;-87
2022/02/25 08:39:58;;;;;;;;;;;4.90;99.90;;;;;;4880294;29;19932;-85
2022/02/25 08:47:18;;;;;;;;;;;;;;;;;;;;;
2022/02/25 08:50:26;;;;;;;;;;;4.20;99.90;;;;;;4867053;29;19928;-87
2022/02/25 08:57:57;;;;;;;;;;;;;;;;;;;;;
2022/02/25 09:01:27;;;;;;;;;;;5.40;99.90;;;;;;4743950;30;20068;-85
2022/02/25 09:04:53;;;;;;;;;;;5.40;99.90;;;;;;4748610;30;19937;-86
2022/02/25 09:08:56;;;;;;;;;;;5.70;99.90;;;;;;4645590;30;19932;-88
2022/02/25 09:11:58;;;;;;;;;;;6.00;99.90;;;;;;4641786;30;19932;-86
2022/02/25 09:14:55;;;;;;;;;;;5.70;99.90;;;;;;4657525;30;19966;-87
2022/02/25 09:17:26;;;;;;;;;;;6.10;99.90;;;;;;4691961;30;19931;-84
2022/02/25 09:19:55;;;;;;;;;;;6.30;99.90;;;;;;4694329;30;20341;-85
2022/02/25 09:22:28;;;;;;;;;;;6.20;99.90;;;;;;4694804;30;19940;-87
2022/02/25 09:24:59;;;;;;;;;;;6.30;99.90;;;;;;4716376;30;19930;-87
2022/02/25 09:28:09;;;;;;;;;;;5.50;99.90;;;;;;4728478;30;20422;-86
2022/02/25 09:31:20;;;;;;;;;;;6.70;99.90;;;;;;4755086;30;19930;-85
2022/02/25 09:34:02;;;;;;;;;;;6.40;99.90;;;;;;4871410;29;19932;-86
2022/02/25 09:36:48;;;;;;;;;;;6.30;99.90;;;;;;4858784;29;19932;-84
2022/02/25 09:40:05;;;;;;;;;;;6.50;99.90;;;;;;4883084;29;19928;-85
2022/02/25 09:43:41;;;;;;;;;;;5.90;99.90;;;;;;4858855;29;19919;-85
2022/02/25 09:47:27;;;;;;;;;;;7.50;99.90;;;;;;4854175;29;19928;-86
2022/02/25 09:50:54;;;;;;;;;;;6.40;99.90;;;;;;4875402;29;19928;-87
2022/02/25 09:53:53;;;;;;;;;;;7.00;99.90;;;;;;4863232;29;19938;-86
2022/02/25 09:56:47;;;;;;;;;;;7.00;99.90;;;;;;4878364;29;19984;-93
2022/02/25 09:59:19;;;;;;;;;;;6.60;99.90;;;;;;4862024;29;19928;-85
2022/02/25 10:02:16;;;;;;;;;;;;;;;;;;;;;
2022/02/25 10:05:11;;;;;;;;;;;5.50;99.90;;;;;;4857726;29;20338;-87
2022/02/25 10:07:45;;;;;;;;;;;7.70;99.90;;;;;;4865813;29;19939;-85
2022/02/25 10:14:16;;;;;;;;;;;7.80;99.90;;;;;;4888283;29;19935;-90
2022/02/25 10:17:42;;;;;;;;;;;7.80;99.90;;;;;;4893720;29;20454;-83
2022/02/25 10:24:22;;;;;;;;;;;7.40;99.90;;;;;;4802090;30;19936;-90
2022/02/25 10:27:23;;;;;;;;;;;8.20;99.90;;;;;;4815639;29;19929;-83
2022/02/25 10:30:54;;;;;;;;;;;;;;;;;;;;;
2022/02/25 10:33:50;;;;;;;;;;;8.20;99.90;;;;;;4749887;30;19919;-83
2022/02/25 10:36:45;;;;;;;;;;;7.90;99.90;;;;;;4741064;30;19930;-86
2022/02/25 10:39:39;;;;;;;;;;;6.90;99.90;;;;;;4749010;30;20220;-86
2022/02/25 10:45:36;;;;;;;;;;;8.00;99.90;;;;;;4793981;29;20157;-86
2022/02/25 10:48:59;;;;;;;;;;;8.70;99.90;;;;;;4806883;29;19929;-86
2022/02/25 10:51:55;;;;;;;;;;;7.90;99.90;;;;;;4804034;29;19923;-87
2022/02/25 10:54:56;;;;;;;;;;;;;;;;;;;;;
2022/02/25 10:57:54;;;;;;;;;;;9.30;99.90;;;;;;4890851;29;19931;-84
2022/02/25 11:01:11;;;;;;;;;;;8.80;99.90;;;;;;4878494;29;19942;-88
2022/02/25 11:03:43;;;;;;;;;;;8.80;99.90;;;;;;4896812;29;19928;-84
2022/02/25 11:06:19;;;;;;;;;;;8.80;99.90;;;;;;4894722;29;19936;-85
2022/02/25 11:09:28;;;;;;;;;;;8.90;99.90;;;;;;4869965;29;19935;-85
2022/02/25 11:12:25;;;;;;;;;;;8.90;99.90;;;;;;4844944;29;19928;-83
2022/02/25 11:15:43;;;;;;;;;;;11.30;99.90;;;;;;4875026;29;19916;-84
2022/02/25 11:19:12;;;;;;;;;;;9.20;99.90;;;;;;4781904;30;19929;-88
2022/02/25 11:21:52;;;;;;;;;;;10.20;99.90;;;;;;4785118;30;19933;-89
2022/02/25 11:24:48;;;;;;;;;;;8.60;99.70;;;;;;4795102;30;19941;-84
2022/02/25 11:27:43;;;;;;;;;;;9.20;99.30;;;;;;4767694;30;19930;-87
2022/02/25 11:30:38;;;;;;;;;;;9.90;99.90;;;;;;4782491;30;20195;-85
2022/02/25 11:33:37;;;;;;;;;;;9.70;99.60;;;;;;4785744;30;19964;-86
2022/02/25 11:36:44;;;;;;;;;;;9.70;99.50;;;;;;4765576;30;19930;-91
2022/02/25 11:39:24;;;;;;;;;;;9.60;99.10;;;;;;4770544;30;20029;-87
2022/02/25 11:43:12;;;;;;;;;;;9.50;99.00;;;;;;4756260;30;19934;-91
2022/02/25 11:46:41;;;;;;;;;;;;;;;;;;;;;
2022/02/25 11:49:54;;;;;;;;;;;9.70;98.80;;;;;;4867669;29;19928;-86
2022/02/25 11:53:22;;;;;;;;;;;10.20;98.60;;;;;;4865502;29;19928;-88
2022/02/25 11:56:27;;;;;;;;;;;9.90;98.20;;;;;;4893313;29;19928;-86
2022/02/25 11:59:39;;;;;;;;;;;9.90;98.00;;;;;;4882431;29;19918;-87
2022/02/25 12:02:30;;;;;;;;;;;8.60;97.90;;;;;;4863765;29;19928;-84
2022/02/25 12:05:17;;;;;;;;;;;9.80;98.00;;;;;;4871525;29;19932;-85
2022/02/25 12:08:42;;;;;;;;;;;8.60;97.30;;;;;;4864854;29;19939;-86
2022/02/25 12:11:52;;;;;;;;;;;9.90;97.90;;;;;;4868489;29;19928;-84
2022/02/25 12:15:05;;;;;;;;;;;8.70;96.70;;;;;;4882040;29;19916;-86
2022/02/25 12:18:10;;;;;;;;;;;9.00;96.80;;;;;;4883170;29;19912;-91
2022/02/25 12:21:12;;;;;;;;;;;10.00;96.50;;;;;;4890167;29;19941;-86
2022/02/25 12:23:46;;;;;;;;;;;10.30;96.60;;;;;;4902090;29;19937;-84
2022/02/25 12:26:18;;;;;;;;;;;10.50;96.60;;;;;;4885901;29;19928;-85
2022/02/25 12:29:05;;;;;;;;;;;10.30;97.20;;;;;;4863770;29;19932;-84
2022/02/25 12:33:05;;;;;;;;;;;11.90;96.80;;;;;;4852983;29;19936;-84
2022/02/25 12:36:53;;;;;;;;;;;;;;;;;;;;;
2022/02/25 12:40:08;;;;;;;;;;;10.80;95.80;;;;;;4805623;29;19939;-84
2022/02/25 12:46:39;;;;;;;;;;;11.00;95.30;;;;;;4831943;29;19929;-85
2022/02/25 12:50:12;;;;;;;;;;;;;;;;;;;;;
2022/02/25 12:52:54;;;;;;;;;;;10.70;95.20;;;;;;4889565;29;19934;-84
2022/02/25 12:55:55;;;;;;;;;;;10.60;94.40;;;;;;4886528;29;20943;-84
2022/02/25 12:58:35;;;;;;;;;;;11.10;94.30;;;;;;4875041;29;19939;-85
2022/02/25 13:01:27;;;;;;;;;;;10.60;94.00;;;;;;4862264;29;19936;-84
2022/02/25 13:04:06;;;;;;;;;;;12.20;94.40;;;;;;4863637;29;19938;-86
2022/02/25 13:06:39;;;;;;;;;;;10.70;94.20;;;;;;4875347;29;19932;-83
2022/02/25 13:09:25;;;;;;;;;;;;;;;;;;;;;
2022/02/25 13:12:20;;;;;;;;;;;12.50;95.10;;;;;;4872670;29;19932;-86
2022/02/25 13:15:29;;;;;;;;;;;10.70;94.10;;;;;;4876657;29;19942;-87
2022/02/25 13:18:30;;;;;;;;;;;11.20;94.30;;;;;;4888937;29;19939;-85
2022/02/25 13:21:07;;;;;;;;;;;10.80;94.30;;;;;;4892372;29;19928;-85
2022/02/25 13:24:14;;;;;;;;;;;10.80;93.50;;;;;;4859818;29;19942;-83
2022/02/25 13:26:59;;;;;;;;;;;12.80;94.50;;;;;;4887804;29;20099;-84
2022/02/25 13:29:30;;;;;;;;;;;10.70;93.30;;;;;;4871345;29;19932;-83
2022/02/25 13:32:10;;;;;;;;;;;11.10;93.30;;;;;;4876018;29;19938;-85
2022/02/25 13:34:57;;;;;;;;;;;11.40;94.20;;;;;;4891027;29;19931;-83
2022/02/25 13:37:25;;;;;;;;;;;11.50;93.70;;;;;;4875380;29;19932;-84
2022/02/25 13:40:23;;;;;;;;;;;11.70;93.10;;;;;;4875980;29;19924;-85
2022/02/25 13:43:25;;;;;;;;;;;;;;;;;;;;;
2022/02/25 13:46:28;;;;;;;;;;;11.80;92.60;;;;;;4874012;29;19935;-83
2022/02/25 13:52:22;;;;;;;;;;;11.40;91.80;;;;;;4874102;29;19932;-84
2022/02/25 13:55:18;;;;;;;;;;;;;;;;;;;;;
2022/02/25 13:57:55;;;;;;;;;;;11.40;92.10;;;;;;4869535;29;19928;-89
2022/02/25 14:00:30;;;;;;;;;;;10.80;92.70;;;;;;4868052;29;19958;-84
2022/02/25 14:03:15;;;;;;;;;;;10.60;92.90;;;;;;4873298;29;19938;-85
2022/02/25 14:06:22;;;;;;;;;;;10.50;92.50;;;;;;4856139;29;20228;-86
2022/02/25 14:13:57;;;;;;;;;;;10.10;92.50;;;;;;4827113;29;19945;-85
2022/02/25 14:16:39;;;;;;;;;;;10.70;92.60;;;;;;4823287;29;19936;-85
2022/02/25 14:23:15;;;;;;;;;;;11.30;92.40;;;;;;4804790;29;19928;-85
2022/02/25 14:26:14;;;;;;;;;;;11.00;91.90;;;;;;4824956;29;19948;-84
2022/02/25 14:29:50;;;;;;;;;;;12.90;92.60;;;;;;4868208;29;19938;-83
2022/02/25 14:32:56;;;;;;;;;;;11.00;91.00;;;;;;4889944;29;19932;-82
2022/02/25 14:35:27;;;;;;;;;;;11.20;91.60;;;;;;4547592;29;10000486;-83
2022/02/25 14:37:58;;;;;;;;;;;11.20;91.60;;;;;;4889495;29;19932;-83
2022/02/25 14:40:27;;;;;;;;;;;11.20;91.10;;;;;;4890913;29;19935;-82
2022/02/25 14:43:01;;;;;;;;;;;11.20;91.60;;;;;;4883034;29;19935;-83
2022/02/25 14:45:29;;;;;;;;;;;11.00;91.80;;;;;;4869175;29;19943;-82
2022/02/25 14:48:00;;;;;;;;;;;10.90;91.90;;;;;;4856189;29;19943;-86
2022/02/25 14:50:28;;;;;;;;;;;10.80;92.10;;;;;;4886739;29;19939;-83
2022/02/25 14:53:02;;;;;;;;;;;10.70;91.90;;;;;;4855170;29;19933;-83
2022/02/25 14:55:30;;;;;;;;;;;10.70;91.90;;;;;;4857441;29;19928;-84
2022/02/25 14:58:03;;;;;;;;;;;10.50;92.00;;;;;;4872501;29;19932;-86
2022/02/25 15:00:33;;;;;;;;;;;10.70;92.10;;;;;;4891990;29;19927;-85
2022/02/25 15:03:03;;;;;;;;;;;12.70;92.50;;;;;;4893655;29;19932;-82
2022/02/25 15:05:33;;;;;;;;;;;12.10;91.80;;;;;;4894875;29;19928;-84
2022/02/25 15:08:10;;;;;;;;;;;10.50;91.70;;;;;;4868754;29;19938;-82
2022/02/25 15:10:43;;;;;;;;;;;11.10;90.80;;;;;;4841626;29;19929;-85
2022/02/25 15:13:11;;;;;;;;;;;11.80;91.10;;;;;;4863852;29;19935;-83
2022/02/25 15:15:39;;;;;;;;;;;12.00;90.60;;;;;;4872878;29;19938;-82
2022/02/25 15:18:08;;;;;;;;;;;11.90;90.40;;;;;;4861745;29;20188;-81
2022/02/25 15:20:37;;;;;;;;;;;11.90;90.60;;;;;;4867103;29;19936;-81
2022/02/25 15:23:10;;;;;;;;;;;11.70;90.10;;;;;;4850027;29;19932;-83
2022/02/25 15:25:38;;;;;;;;;;;12.40;90.60;;;;;;4870097;29;19933;-80
2022/02/25 15:28:13;;;;;;;;;;;11.40;90.60;;;;;;4869955;29;19932;-81
2022/02/25 15:30:45;;;;;;;;;;;11.20;90.60;;;;;;4868736;29;19936;-86
2022/02/25 15:33:22;;;;;;;;;;;11.00;91.10;;;;;;4870012;29;19943;-81
2022/02/25 15:35:53;;;;;;;;;;;11.30;91.20;;;;;;4869865;29;19939;-84
2022/02/25 15:38:22;;;;;;;;;;;11.80;91.00;;;;;;4870491;29;19928;-82
2022/02/25 15:40:54;;;;;;;;;;;11.90;90.70;;;;;;4872316;29;19936;-82
2022/02/25 15:43:26;;;;;;;;;;;11.90;90.10;;;;;;4869049;29;19932;-81
2022/02/25 15:46:02;;;;;;;;;;;11.80;90.40;;;;;;4883824;29;19943;-80
2022/02/25 15:48:31;;;;;;;;;;;11.30;90.10;;;;;;4851785;29;20306;-81
2022/02/25 15:50:59;;;;;;;;;;;11.40;90.70;;;;;;4870603;29;19933;-81
2022/02/25 15:53:27;;;;;;;;;;;11.10;90.90;;;;;;4871478;29;19928;-81
2022/02/25 15:55:55;;;;;;;;;;;12.60;91.70;;;;;;4871194;29;19938;-81
2022/02/25 15:58:24;;;;;;;;;;;10.10;90.70;;;;;;4870842;29;19932;-83
2022/02/25 16:00:55;;;;;;;;;;;10.60;90.80;;;;;;4871407;29;19928;-82
2022/02/25 16:03:32;;;;;;;;;;;11.40;91.70;;;;;;4874966;29;19935;-85
2022/02/25 16:06:17;;;;;;;;;;;11.00;91.10;;;;;;4873731;29;19939;-86
2022/02/25 16:09:27;;;;;;;;;;;11.60;90.80;;;;;;4874523;29;19944;-87
2022/02/25 16:13:00;;;;;;;;;;;12.70;91.40;;;;;;4852561;29;19940;-83
2022/02/25 16:16:23;;;;;;;;;;;11.60;90.20;;;;;;4875469;29;19943;-88
2022/02/25 16:19:58;;;;;;;;;;;11.70;90.10;;;;;;4724177;30;19947;-85
2022/02/25 16:23:11;;;;;;;;;;;;;;;;;;;;;
2022/02/25 16:26:34;;;;;;;;;;;11.30;91.60;;;;;;4742513;30;19930;-85
2022/02/25 16:30:04;;;;;;;;;;;11.10;90.60;;;;;;4744828;30;19934;-87
2022/02/25 16:33:19;;;;;;;;;;;12.00;91.00;;;;;;4740891;30;19930;-83
2022/02/25 16:36:27;;;;;;;;;;;10.40;91.20;;;;;;4756834;30;19934;-84
2022/02/25 16:39:41;;;;;;;;;;;10.60;90.80;;;;;;4739768;30;19934;-84
2022/02/25 16:42:59;;;;;;;;;;;8.70;90.30;;;;;;4746632;30;20514;-87
2022/02/25 16:45:36;;;;;;;;;;;10.40;91.30;;;;;;4757346;30;20206;-85
2022/02/25 16:48:33;;;;;;;;;;;10.10;91.10;;;;;;4760838;30;19930;-84
2022/02/25 16:51:54;;;;;;;;;;;8.90;91.80;;;;;;4751801;30;19950;-87
2022/02/25 16:54:39;;;;;;;;;;;9.50;91.80;;;;;;4744770;30;19939;-87
2022/02/25 16:57:38;;;;;;;;;;;10.00;91.40;;;;;;4877779;29;19934;-85
2022/02/25 17:00:51;;;;;;;;;;;9.20;92.00;;;;;;4868739;29;19932;-86
2022/02/25 17:07:29;;;;;;;;;;;10.50;92.00;;;;;;4863541;29;19935;-84
2022/02/25 17:10:22;;;;;;;;;;;8.90;91.80;;;;;;4869973;29;19936;-86